METAR Data
IDs: Format: Raw Decoded Include TAF

Data at: 1524 UTC 25 Jan 2020

METAR for:KHSE (Hatteras/Mitchell Fl, NC, US)
Text:KHSE 251451Z AUTO VRB03KT 4SM HZ SCT043 OVC060 17/13 A2990 RMK AO2 RAE1353 SLP124 P0000 60001 T01670133 55000
Temperature: 16.7°C ( 62°F)
Dewpoint: 13.3°C ( 56°F) [RH = 80%]
Pressure (altimeter):29.90 inches Hg (1012.6 mb) [Sea level pressure: 1012.4 mb]
Winds:variable direction winds at 3 MPH (3 knots; 1.5 m/s)
Visibility: 4 sm ( 6 km)
Ceiling:6000 feet AGL
Clouds: scattered clouds at 4300 feet AGL, overcast cloud deck at 6000 feet AGL
Weather:HZ (haze)
QC Flag:automated observation with no human augmentation
Text:KHSE 251351Z AUTO 20011KT 6SM -RA OVC065 17/13 A2990 RMK AO2 RAE1254B44 SLP124 P0000 T01670133
Temperature: 16.7°C ( 62°F)
Dewpoint: 13.3°C ( 56°F) [RH = 80%]
Pressure (altimeter):29.90 inches Hg (1012.6 mb) [Sea level pressure: 1012.4 mb]
Winds:from the SSW (200 degrees) at 13 MPH (11 knots; 5.7 m/s)
Visibility: 6 sm ( 10 km)
Ceiling:6500 feet AGL
Clouds: overcast cloud deck at 6500 feet AGL
Weather:-RA (light rain)
QC Flag:automated observation with no human augmentation
Text:KHSE 251251Z AUTO 19011G19KT 5SM -RA BR FEW027 BKN040 16/14 A2989 RMK AO2 SLP122 P0001 T01610139
Temperature: 16.1°C ( 61°F)
Dewpoint: 13.9°C ( 57°F) [RH = 87%]
Pressure (altimeter):29.89 inches Hg (1012.3 mb) [Sea level pressure: 1012.2 mb]
Winds:from the S (190 degrees) at 13 MPH (11 knots; 5.7 m/s) gusting to 22 MPH (19 knots; 9.8 m/s)
Visibility: 5 sm ( 8 km)
Ceiling:4000 feet AGL
Clouds: few clouds at 2700 feet AGL, broken clouds at 4000 feet AGL
Weather:-RA BR (light rain, mist)
QC Flag:automated observation with no human augmentation
Text:KHSE 251151Z AUTO 21013G19KT 6SM -RA BR SCT023 BKN039 OVC100 16/14 A2990 RMK AO2 RAB08 SLP124 P0000 60002 70003 T01610139 10172 20144 55003
Temperature: 16.1°C ( 61°F)
Dewpoint: 13.9°C ( 57°F) [RH = 87%]
Pressure (altimeter):29.90 inches Hg (1012.6 mb) [Sea level pressure: 1012.4 mb]
Winds:from the SSW (210 degrees) at 15 MPH (13 knots; 6.7 m/s) gusting to 22 MPH (19 knots; 9.8 m/s)
Visibility: 6 sm ( 10 km)
Ceiling:3900 feet AGL
Clouds: scattered clouds at 2300 feet AGL, broken clouds at 3900 feet AGL, overcast cloud deck at 10000 feet AGL
Weather:-RA BR (light rain, mist)
QC Flag:automated observation with no human augmentation
Text:KHSE 251051Z AUTO 17017G26KT 8SM FEW022 SCT046 BKN055 16/14 A2988 RMK AO2 PK WND 17026/1051 RAB04E47 SLP117 P0001 T01610139
Temperature: 16.1°C ( 61°F)
Dewpoint: 13.9°C ( 57°F) [RH = 87%]
Pressure (altimeter):29.88 inches Hg (1011.9 mb) [Sea level pressure: 1011.7 mb]
Winds:from the S (170 degrees) at 20 MPH (17 knots; 8.7 m/s) gusting to 30 MPH (26 knots; 13.4 m/s)
Visibility: 8 sm ( 13 km)
Ceiling:5500 feet AGL
Clouds: few clouds at 2200 feet AGL, scattered clouds at 4600 feet AGL, broken clouds at 5500 feet AGL
QC Flag:automated observation with no human augmentation
Text:KHSE 250951Z AUTO 16014KT 8SM FEW035 SCT044 BKN055 16/14 A2990 RMK AO2 RAB0859E09 SLP126 P0000 T01610139
Temperature: 16.1°C ( 61°F)
Dewpoint: 13.9°C ( 57°F) [RH = 87%]
Pressure (altimeter):29.90 inches Hg (1012.6 mb) [Sea level pressure: 1012.6 mb]
Winds:from the SSE (160 degrees) at 16 MPH (14 knots; 7.2 m/s)
Visibility: 8 sm ( 13 km)
Ceiling:5500 feet AGL
Clouds: few clouds at 3500 feet AGL, scattered clouds at 4400 feet AGL, broken clouds at 5500 feet AGL
QC Flag:automated observation with no human augmentation
Text:KHSE 250851Z AUTO 16014KT 9SM CLR 16/13 A2991 RMK AO2 PK WND 16027/0818 SLP127 60001 T01610133 58029
Temperature: 16.1°C ( 61°F)
Dewpoint: 13.3°C ( 56°F) [RH = 83%]
Pressure (altimeter):29.91 inches Hg (1013.0 mb) [Sea level pressure: 1012.7 mb]
Winds:from the SSE (160 degrees) at 16 MPH (14 knots; 7.2 m/s)
Visibility: 9 sm ( 14 km)
Ceiling:at least 12,000 feet AGL
Clouds:sky clear below 12,000 feet AGL
QC Flag:automated observation with no human augmentation
Text:KHSE 250751Z AUTO 16014KT 9SM SCT047 16/13 A2994 RMK AO2 RAB03E14 SLP138 P0001 T01560128
Temperature: 15.6°C ( 60°F)
Dewpoint: 12.8°C ( 55°F) [RH = 83%]
Pressure (altimeter):29.94 inches Hg (1014.0 mb) [Sea level pressure: 1013.8 mb]
Winds:from the SSE (160 degrees) at 16 MPH (14 knots; 7.2 m/s)
Visibility: 9 sm ( 14 km)
Ceiling:at least 12,000 feet AGL
Clouds: scattered clouds at 4700 feet AGL
QC Flag:automated observation with no human augmentation
Text:KHSE 250651Z AUTO 16013KT 10SM FEW033 SCT044 16/12 A2997 RMK AO2 SLP148 T01560122
Temperature: 15.6°C ( 60°F)
Dewpoint: 12.2°C ( 54°F) [RH = 80%]
Pressure (altimeter):29.97 inches Hg (1015.0 mb) [Sea level pressure: 1014.8 mb]
Winds:from the SSE (160 degrees) at 15 MPH (13 knots; 6.7 m/s)
Visibility:10 or more sm (16+ km)
Ceiling:at least 12,000 feet AGL
Clouds: few clouds at 3300 feet AGL, scattered clouds at 4400 feet AGL
QC Flag:automated observation with no human augmentation
Text:KHSE 250551Z AUTO 16010KT 8SM FEW035 SCT060 14/12 A2999 RMK AO2 RAE24 SLP156 P0001 60001 T01440117 10156 20133 58021
Temperature: 14.4°C ( 58°F)
Dewpoint: 11.7°C ( 53°F) [RH = 84%]
Pressure (altimeter):29.99 inches Hg (1015.7 mb) [Sea level pressure: 1015.6 mb]
Winds:from the SSE (160 degrees) at 12 MPH (10 knots; 5.1 m/s)
Visibility: 8 sm ( 13 km)
Ceiling:at least 12,000 feet AGL
Clouds: few clouds at 3500 feet AGL, scattered clouds at 6000 feet AGL
QC Flag:automated observation with no human augmentation
Text:KHSE 250451Z AUTO 20008KT 8SM -RA SCT037 BKN050 OVC120 15/13 A3004 RMK AO2 RAB51 SLP173 P0000 T01500128 402000100
Temperature: 15.0°C ( 59°F)
Dewpoint: 12.8°C ( 55°F) [RH = 87%]
Pressure (altimeter):30.04 inches Hg (1017.4 mb) [Sea level pressure: 1017.3 mb]
Winds:from the SSW (200 degrees) at 9 MPH (8 knots; 4.1 m/s)
Visibility: 8 sm ( 13 km)
Ceiling:5000 feet AGL
Clouds: scattered clouds at 3700 feet AGL, broken clouds at 5000 feet AGL, overcast cloud deck at 12000 feet AGL
Weather:-RA (light rain)
QC Flag:automated observation with no human augmentation
Text:KHSE 250351Z AUTO 13009KT 10SM FEW048 SCT060 BKN110 15/12 A3005 RMK AO2 SLP174 T01500117
Temperature: 15.0°C ( 59°F)
Dewpoint: 11.7°C ( 53°F) [RH = 81%]
Pressure (altimeter):30.05 inches Hg (1017.7 mb) [Sea level pressure: 1017.4 mb]
Winds:from the SE (130 degrees) at 10 MPH (9 knots; 4.6 m/s)
Visibility:10 or more sm (16+ km)
Ceiling:11000 feet AGL
Clouds: few clouds at 4800 feet AGL, scattered clouds at 6000 feet AGL, broken clouds at 11000 feet AGL
QC Flag:automated observation with no human augmentation
Text:KHSE 250251Z AUTO 13010G18KT 10SM CLR 14/11 A3005 RMK AO2 SLP177 T01440111 58012
Temperature: 14.4°C ( 58°F)
Dewpoint: 11.1°C ( 52°F) [RH = 81%]
Pressure (altimeter):30.05 inches Hg (1017.7 mb) [Sea level pressure: 1017.7 mb]
Winds:from the SE (130 degrees) at 12 MPH (10 knots; 5.1 m/s) gusting to 21 MPH (18 knots; 9.3 m/s)
Visibility:10 or more sm (16+ km)
Ceiling:at least 12,000 feet AGL
Clouds:sky clear below 12,000 feet AGL
QC Flag:automated observation with no human augmentation
Text:KHSE 250151Z AUTO 13011KT 10SM FEW060 14/11 A3007 RMK AO2 SLP182 T01440106
Temperature: 14.4°C ( 58°F)
Dewpoint: 10.6°C ( 51°F) [RH = 78%]
Pressure (altimeter):30.07 inches Hg (1018.4 mb) [Sea level pressure: 1018.2 mb]
Winds:from the SE (130 degrees) at 13 MPH (11 knots; 5.7 m/s)
Visibility:10 or more sm (16+ km)
Ceiling:at least 12,000 feet AGL
Clouds: few clouds at 6000 feet AGL
QC Flag:automated observation with no human augmentation
Text:KHSE 250051Z AUTO 11006KT 8SM SCT110 13/10 A3009 RMK AO2 SLP188 T01330100
Temperature: 13.3°C ( 56°F)
Dewpoint: 10.0°C ( 50°F) [RH = 80%]
Pressure (altimeter):30.09 inches Hg (1019.0 mb) [Sea level pressure: 1018.8 mb]
Winds:from the ESE (110 degrees) at 7 MPH (6 knots; 3.1 m/s)
Visibility: 8 sm ( 13 km)
Ceiling:at least 12,000 feet AGL
Clouds: scattered clouds at 11000 feet AGL
QC Flag:automated observation with no human augmentation
Text:KHSE 242351Z AUTO 09004KT 6SM HZ CLR 14/10 A3009 RMK AO2 SLP189 T01440100 10194 20144 55004
Temperature: 14.4°C ( 58°F)
Dewpoint: 10.0°C ( 50°F) [RH = 75%]
Pressure (altimeter):30.09 inches Hg (1019.0 mb) [Sea level pressure: 1018.9 mb]
Winds:from the E (90 degrees) at 5 MPH (4 knots; 2.1 m/s)
Visibility: 6 sm ( 10 km)
Ceiling:at least 12,000 feet AGL
Clouds:sky clear below 12,000 feet AGL
Weather:HZ (haze)
QC Flag:automated observation with no human augmentation
Text:KHSE 242251Z AUTO 08006KT 10SM FEW120 16/11 A3009 RMK AO2 SLP187 T01610111
Temperature: 16.1°C ( 61°F)
Dewpoint: 11.1°C ( 52°F) [RH = 72%]
Pressure (altimeter):30.09 inches Hg (1019.0 mb) [Sea level pressure: 1018.7 mb]
Winds:from the E (80 degrees) at 7 MPH (6 knots; 3.1 m/s)
Visibility:10 or more sm (16+ km)
Ceiling:at least 12,000 feet AGL
Clouds: few clouds at 12000 feet AGL
QC Flag:automated observation with no human augmentation
Text:KHSE 242151Z AUTO 09007KT 6SM HZ BKN070 17/11 A3010 RMK AO2 SLP190 T01670111
Temperature: 16.7°C ( 62°F)
Dewpoint: 11.1°C ( 52°F) [RH = 70%]
Pressure (altimeter):30.10 inches Hg (1019.4 mb) [Sea level pressure: 1019.0 mb]
Winds:from the E (90 degrees) at 8 MPH (7 knots; 3.6 m/s)
Visibility: 6 sm ( 10 km)
Ceiling:7000 feet AGL
Clouds: broken clouds at 7000 feet AGL
Weather:HZ (haze)
QC Flag:automated observation with no human augmentation
Text:KHSE 242051Z AUTO 09007KT 7SM SCT065 17/12 A3010 RMK AO2 SLP193 T01720122 56018
Temperature: 17.2°C ( 63°F)
Dewpoint: 12.2°C ( 54°F) [RH = 72%]
Pressure (altimeter):30.10 inches Hg (1019.4 mb) [Sea level pressure: 1019.3 mb]
Winds:from the E (90 degrees) at 8 MPH (7 knots; 3.6 m/s)
Visibility: 7 sm ( 11 km)
Ceiling:at least 12,000 feet AGL
Clouds: scattered clouds at 6500 feet AGL
QC Flag:automated observation with no human augmentation
Text:KHSE 241951Z AUTO 08007KT 10SM BKN060 19/13 A3011 RMK AO2 SLP197 T01890133
Temperature: 18.9°C ( 66°F)
Dewpoint: 13.3°C ( 56°F) [RH = 70%]
Pressure (altimeter):30.11 inches Hg (1019.7 mb) [Sea level pressure: 1019.7 mb]
Winds:from the E (80 degrees) at 8 MPH (7 knots; 3.6 m/s)
Visibility:10 or more sm (16+ km)
Ceiling:6000 feet AGL
Clouds: broken clouds at 6000 feet AGL
QC Flag:automated observation with no human augmentation
Text:KHSE 241851Z AUTO 10011KT 9SM FEW060 19/12 A3011 RMK AO2 SLP197 T01890122
Temperature: 18.9°C ( 66°F)
Dewpoint: 12.2°C ( 54°F) [RH = 65%]
Pressure (altimeter):30.11 inches Hg (1019.7 mb) [Sea level pressure: 1019.7 mb]
Winds:from the E (100 degrees) at 13 MPH (11 knots; 5.7 m/s)
Visibility: 9 sm ( 14 km)
Ceiling:at least 12,000 feet AGL
Clouds: few clouds at 6000 feet AGL
QC Flag:automated observation with no human augmentation
Text:KHSE 241751Z AUTO 10008KT 10SM BKN070 19/13 A3016 RMK AO2 SLP212 60000 T01890128 10200 20111 58018
Temperature: 18.9°C ( 66°F)
Dewpoint: 12.8°C ( 55°F) [RH = 68%]
Pressure (altimeter):30.16 inches Hg (1021.4 mb) [Sea level pressure: 1021.2 mb]
Winds:from the E (100 degrees) at 9 MPH (8 knots; 4.1 m/s)
Visibility:10 or more sm (16+ km)
Ceiling:7000 feet AGL
Clouds: broken clouds at 7000 feet AGL
QC Flag:automated observation with no human augmentation
Text:KHSE 241651Z AUTO 02007KT 360V060 10SM OVC075 18/13 A3018 RMK AO2 SLP221 T01780128
Temperature: 17.8°C ( 64°F)
Dewpoint: 12.8°C ( 55°F) [RH = 73%]
Pressure (altimeter):30.18 inches Hg (1022.1 mb) [Sea level pressure: 1022.1 mb]
Winds:from the NNE (20 degrees) at 8 MPH (7 knots; 3.6 m/s)
Visibility:10 or more sm (16+ km)
Ceiling:7500 feet AGL
Clouds: overcast cloud deck at 7500 feet AGL
QC Flag:automated observation with no human augmentation
Text:KHSE 241551Z AUTO 07006KT 10SM OVC070 18/12 A3020 RMK AO2 RAB27E36 SLP227 P0000 T01830122
Temperature: 18.3°C ( 65°F)
Dewpoint: 12.2°C ( 54°F) [RH = 68%]
Pressure (altimeter):30.20 inches Hg (1022.8 mb) [Sea level pressure: 1022.7 mb]
Winds:from the ENE (70 degrees) at 7 MPH (6 knots; 3.1 m/s)
Visibility:10 or more sm (16+ km)
Ceiling:7000 feet AGL
Clouds: overcast cloud deck at 7000 feet AGL
QC Flag:automated observation with no human augmentation
Text:KHSE 241451Z AUTO 05007KT 10SM BKN060 OVC070 17/13 A3021 RMK AO2 RAB10E20 SLP229 P0000 60000 T01720128 51006
Temperature: 17.2°C ( 63°F)
Dewpoint: 12.8°C ( 55°F) [RH = 75%]
Pressure (altimeter):30.21 inches Hg (1023.1 mb) [Sea level pressure: 1022.9 mb]
Winds:from the NE (50 degrees) at 8 MPH (7 knots; 3.6 m/s)
Visibility:10 or more sm (16+ km)
Ceiling:6000 feet AGL
Clouds: broken clouds at 6000 feet AGL, overcast cloud deck at 7000 feet AGL
QC Flag:automated observation with no human augmentation
Text:KHSE 241351Z AUTO 04007KT 10SM BKN075 16/13 A3021 RMK AO2 SLP229 T01610128
Temperature: 16.1°C ( 61°F)
Dewpoint: 12.8°C ( 55°F) [RH = 81%]
Pressure (altimeter):30.21 inches Hg (1023.1 mb) [Sea level pressure: 1022.9 mb]
Winds:from the NE (40 degrees) at 8 MPH (7 knots; 3.6 m/s)
Visibility:10 or more sm (16+ km)
Ceiling:7500 feet AGL
Clouds: broken clouds at 7500 feet AGL
QC Flag:automated observation with no human augmentation
Text:KHSE 241251Z AUTO 00000KT 9SM SCT046 BKN070 13/11 A3020 RMK AO2 SLP225 T01330106
Temperature: 13.3°C ( 56°F)
Dewpoint: 10.6°C ( 51°F) [RH = 84%]
Pressure (altimeter):30.20 inches Hg (1022.8 mb) [Sea level pressure: 1022.5 mb]
Winds:calm
Visibility: 9 sm ( 14 km)
Ceiling:7000 feet AGL
Clouds: scattered clouds at 4600 feet AGL, broken clouds at 7000 feet AGL
QC Flag:automated observation with no human augmentation
Text:KHSE 241151Z AUTO 02005KT 10SM OVC060 11/09 A3019 RMK AO2 SLP223 T01110094 10128 20100 53010
Temperature: 11.1°C ( 52°F)
Dewpoint: 9.4°C ( 49°F) [RH = 89%]
Pressure (altimeter):30.19 inches Hg (1022.4 mb) [Sea level pressure: 1022.3 mb]
Winds:from the NNE (20 degrees) at 6 MPH (5 knots; 2.6 m/s)
Visibility:10 or more sm (16+ km)
Ceiling:6000 feet AGL
Clouds: overcast cloud deck at 6000 feet AGL
QC Flag:automated observation with no human augmentation
Text:KHSE 241051Z AUTO 00000KT 10SM BKN050 OVC070 12/10 A3017 RMK AO2 SLP217 T01170100
Temperature: 11.7°C ( 53°F)
Dewpoint: 10.0°C ( 50°F) [RH = 89%]
Pressure (altimeter):30.17 inches Hg (1021.8 mb) [Sea level pressure: 1021.7 mb]
Winds:calm
Visibility:10 or more sm (16+ km)
Ceiling:5000 feet AGL
Clouds: broken clouds at 5000 feet AGL, overcast cloud deck at 7000 feet AGL
QC Flag:automated observation with no human augmentation
Text:KHSE 240951Z AUTO 02003KT 10SM BKN070 11/09 A3017 RMK AO2 SLP216 T01110094
Temperature: 11.1°C ( 52°F)
Dewpoint: 9.4°C ( 49°F) [RH = 89%]
Pressure (altimeter):30.17 inches Hg (1021.8 mb) [Sea level pressure: 1021.6 mb]
Winds:from the NNE (20 degrees) at 3 MPH (3 knots; 1.5 m/s)
Visibility:10 or more sm (16+ km)
Ceiling:7000 feet AGL
Clouds: broken clouds at 7000 feet AGL
QC Flag:automated observation with no human augmentation
Text:KHSE 240851Z AUTO 02006KT 10SM CLR 12/10 A3016 RMK AO2 SLP214 T01170100 58011
Temperature: 11.7°C ( 53°F)
Dewpoint: 10.0°C ( 50°F) [RH = 89%]
Pressure (altimeter):30.16 inches Hg (1021.4 mb) [Sea level pressure: 1021.4 mb]
Winds:from the NNE (20 degrees) at 7 MPH (6 knots; 3.1 m/s)
Visibility:10 or more sm (16+ km)
Ceiling:at least 12,000 feet AGL
Clouds:sky clear below 12,000 feet AGL
QC Flag:automated observation with no human augmentation
Text:KHSE 240751Z AUTO VRB05KT 10SM CLR 11/09 A3018 RMK AO2 SLP220 T01060089
Temperature: 10.6°C ( 51°F)
Dewpoint: 8.9°C ( 48°F) [RH = 89%]
Pressure (altimeter):30.18 inches Hg (1022.1 mb) [Sea level pressure: 1022.0 mb]
Winds:variable direction winds at 6 MPH (5 knots; 2.6 m/s)
Visibility:10 or more sm (16+ km)
Ceiling:at least 12,000 feet AGL
Clouds:sky clear below 12,000 feet AGL
QC Flag:automated observation with no human augmentation
Text:KHSE 240651Z AUTO 01005KT 10SM BKN055 11/09 A3019 RMK AO2 SLP223 T01110094
Temperature: 11.1°C ( 52°F)
Dewpoint: 9.4°C ( 49°F) [RH = 89%]
Pressure (altimeter):30.19 inches Hg (1022.4 mb) [Sea level pressure: 1022.3 mb]
Winds:from the N (10 degrees) at 6 MPH (5 knots; 2.6 m/s)
Visibility:10 or more sm (16+ km)
Ceiling:5500 feet AGL
Clouds: broken clouds at 5500 feet AGL
QC Flag:automated observation with no human augmentation
Text:KHSE 240551Z AUTO 03005KT 10SM FEW043 OVC055 12/11 A3020 RMK AO2 RAB0456E0459B20E29 SLP225 P0000 60000 T01220106 10122 20094 58007
Temperature: 12.2°C ( 54°F)
Dewpoint: 10.6°C ( 51°F) [RH = 90%]
Pressure (altimeter):30.20 inches Hg (1022.8 mb) [Sea level pressure: 1022.5 mb]
Winds:from the NNE (30 degrees) at 6 MPH (5 knots; 2.6 m/s)
Visibility:10 or more sm (16+ km)
Ceiling:5500 feet AGL
Clouds: few clouds at 4300 feet AGL, overcast cloud deck at 5500 feet AGL
QC Flag:automated observation with no human augmentation
Text:KHSE 240451Z AUTO 03006KT 10SM FEW035 BKN046 OVC060 11/09 A3021 RMK AO2 SLP229 T01110094 401170078
Temperature: 11.1°C ( 52°F)
Dewpoint: 9.4°C ( 49°F) [RH = 89%]
Pressure (altimeter):30.21 inches Hg (1023.1 mb) [Sea level pressure: 1022.9 mb]
Winds:from the NNE (30 degrees) at 7 MPH (6 knots; 3.1 m/s)
Visibility:10 or more sm (16+ km)
Ceiling:4600 feet AGL
Clouds: few clouds at 3500 feet AGL, broken clouds at 4600 feet AGL, overcast cloud deck at 6000 feet AGL
QC Flag:automated observation with no human augmentation
Text:KHSE 240351Z AUTO 01005KT 10SM BKN060 10/09 A3022 RMK AO2 SLP234 T01000089
Temperature: 10.0°C ( 50°F)
Dewpoint: 8.9°C ( 48°F) [RH = 93%]
Pressure (altimeter):30.22 inches Hg (1023.5 mb) [Sea level pressure: 1023.4 mb]
Winds:from the N (10 degrees) at 6 MPH (5 knots; 2.6 m/s)
Visibility:10 or more sm (16+ km)
Ceiling:6000 feet AGL
Clouds: broken clouds at 6000 feet AGL
QC Flag:automated observation with no human augmentation